Time;durP1;ratioP1;P1;durP2;ratioP2;P2;SDS_P1;SDS_P2;PMS_P1;PMS_P2;Temp;Humidity;BMP_temperature;BMP_pressure;BME280_temperature;BME280_humidity;BME280_pressure;Samples;Min_cycle;Max_cycle;Signal;HPM_P1;HPM_P2
2022/11/11 00:00:12;;;;;;;;;;;;;;;;;;1043196;28;2587;-57
2022/11/11 00:01:03;;;;;;;;;;;;;;;;;;1049264;28;2213;-57
2022/11/11 00:01:34;;;;;;;;;;;;;;;;;;1048006;28;2718;-55
2022/11/11 00:02:04;;;;;;;;;;;;;;;;;;1049331;28;1897;-57
2022/11/11 00:02:34;;;;;;;;;;;;;;;;;;1045185;28;2240;-55
2022/11/11 00:03:05;;;;;;;;;;;;;;;;;;1045077;28;2580;-57
2022/11/11 00:03:35;;;;;;;;;;;;;;;;;;1045415;28;2452;-58
2022/11/11 00:04:05;;;;;;;;;;;;;;;;;;1046680;28;2714;-57
2022/11/11 00:04:36;;;;;;;;;;;;;;;;;;1045407;28;2463;-56
2022/11/11 00:05:06;;;;;;;;;;;;;;;;;;1044233;28;2629;-56
2022/11/11 00:05:36;;;;;;;;;;;;;;;;;;1044510;28;2545;-54
2022/11/11 00:06:11;;;;;;;;;;;;;;;;;;1046275;28;2269;-55
2022/11/11 00:06:41;;;;;;;;;;;;;;;;;;1043904;28;2394;-53
2022/11/11 00:07:12;;;;;;;;;;;;;;;;;;1045084;28;2622;-57
2022/11/11 00:07:42;;;;;;;;;;;;;;;;;;1044395;28;2722;-57
2022/11/11 00:08:13;;;;;;;;;;;;;;;;;;1042414;28;2497;-55
2022/11/11 00:08:45;;;;;;;;;;;;;;;;;;1045649;28;1718;-57
2022/11/11 00:09:16;;;;;;;;;;;;;;;;;;1044331;28;2531;-55
2022/11/11 00:09:46;;;;;;;;;;;;;;;;;;1043839;28;2978;-58
2022/11/11 00:10:16;;;;;;;;;;;;;;;;;;1045309;28;2890;-57
2022/11/11 00:10:46;;;;;;;;;;;;;;;;;;1047055;28;2545;-57
2022/11/11 00:11:17;;;;;;;;;;;;;;;;;;1046886;28;2226;-55
2022/11/11 00:11:47;;;;;;;;;;;;;;;;;;1044515;28;2156;-54
2022/11/11 00:12:17;;;;;;;;;;;;;;;;;;1043222;28;2754;-57
2022/11/11 00:12:47;;;;;;;;;;;;;;;;;;1042934;28;2365;-54
2022/11/11 00:13:18;;;;;;;;;;;;;;;;;;1046177;28;2684;-58
2022/11/11 00:13:48;;;;;;;;;;;;;;;;;;1044937;28;2926;-55
2022/11/11 00:14:18;;;;;;;;;;;;;;;;;;1044954;28;2502;-57
2022/11/11 00:14:48;;;;;;;;;;;;;;;;;;1045699;28;2527;-57
2022/11/11 00:15:19;;;;;;;;;;;;;;;;;;1043899;28;3085;-59
2022/11/11 00:15:55;;;;;;;;;;;;;;;;;;1046228;28;2319;-53
2022/11/11 00:25:04;;;;;;;;;;;;;;;;;;1043580;28;2086;-56
2022/11/11 00:25:04;;;;;;;;;;;;;;;;;;1046569;28;2782;-59
2022/11/11 00:25:08;;;;;;;;;;;;;;;;;;1043600;28;2466;-55
2022/11/11 00:25:38;;;;;;;;;;;;;;;;;;1045644;28;2323;-51
2022/11/11 00:26:09;;;;;;;;;;;;;;;;;;1045174;28;3080;-55
2022/11/11 00:26:40;;;;;;;;;;;;;;;;;;1045609;28;2522;-55
2022/11/11 00:27:10;;;;;;;;;;;;;;;;;;1043712;28;2407;-57
2022/11/11 00:27:41;;;;;;;;;;;;;;;;;;1046818;28;2181;-57
2022/11/11 00:28:11;;;;;;;;;;;;;;;;;;1045878;28;2725;-59
2022/11/11 00:28:41;;;;;;;;;;;;;;;;;;1045930;28;1641;-54
2022/11/11 00:29:12;;;;;;;;;;;;;;;;;;1046480;28;2038;-54
2022/11/11 00:29:44;;;;;;;;;;;;;;;;;;1045871;28;2886;-58
2022/11/11 00:30:15;;;;;;;;;;;;;;;;;;1046411;28;2555;-58
2022/11/11 00:30:45;;;;;;;;;;;;;;;;;;1045373;28;2439;-56
2022/11/11 00:31:15;;;;;;;;;;;;;;;;;;1047149;28;2473;-55
2022/11/11 00:32:35;;;;;;;;;;;;;;;;;;1043705;28;2068;-58
2022/11/11 00:33:05;;;;;;;;;;;;;;;;;;1045655;28;2480;-58
2022/11/11 00:33:35;;;;;;;;;;;;;;;;;;1044044;28;1911;-51
2022/11/11 00:34:05;;;;;;;;;;;;;;;;;;1046866;28;2519;-57
2022/11/11 00:34:36;;;;;;;;;;;;;;;;;;1044508;28;2028;-58
2022/11/11 00:35:56;;;;;;;;;;;;;;;;;;1045144;28;2117;-54
2022/11/11 00:36:26;;;;;;;;;;;;;;;;;;1046391;28;2724;-58
2022/11/11 00:36:56;;;;;;;;;;;;;;;;;;1044278;28;2575;-56
2022/11/11 00:37:26;;;;;;;;;;;;;;;;;;1045091;28;1777;-58
2022/11/11 00:38:05;;;;;;;;;;;;;;;;;;1044361;28;2621;-55
2022/11/11 00:38:44;;;;;;;;;;;;;;;;;;1046564;28;2222;-56
2022/11/11 00:39:15;;;;;;;;;;;;;;;;;;1042999;28;1787;-56
2022/11/11 00:39:45;;;;;;;;;;;;;;;;;;1044241;28;1896;-58
2022/11/11 00:40:16;;;;;;;;;;;;;;;;;;1045479;28;2558;-53
2022/11/11 00:40:46;;;;;;;;;;;;;;;;;;1044543;28;2291;-59
2022/11/11 00:41:17;;;;;;;;;;;;;;;;;;1044879;28;3067;-52
2022/11/11 00:41:48;;;;;;;;;;;;;;;;;;1045268;28;2552;-53
2022/11/11 00:42:18;;;;;;;;;;;;;;;;;;1044161;28;2268;-56
2022/11/11 00:42:48;;;;;;;;;;;;;;;;;;1045572;28;3072;-56
2022/11/11 00:43:18;;;;;;;;;;;;;;;;;;1046189;28;2693;-59
2022/11/11 00:43:48;;;;;;;;;;;;;;;;;;1045963;28;2276;-52
2022/11/11 00:44:19;;;;;;;;;;;;;;;;;;1044692;28;2136;-56
2022/11/11 00:44:49;;;;;;;;;;;;;;;;;;1042222;28;1705;-57
2022/11/11 00:45:19;;;;;;;;;;;;;;;;;;1040080;28;2774;-54
2022/11/11 00:45:49;;;;;;;;;;;;;;;;;;1039976;28;2311;-57
2022/11/11 00:51:19;;;;;;;;;;;;;;;;;;1045918;28;2419;-58
2022/11/11 00:51:49;;;;;;;;;;;;;;;;;;1046532;28;3811;-57
2022/11/11 00:52:20;;;;;;;;;;;;;;;;;;1044355;28;2515;-57
2022/11/11 00:52:50;;;;;;;;;;;;;;;;;;1045217;28;2605;-56
2022/11/11 00:53:35;;;;;;;;;;;;;;;;;;1045141;28;2270;-58
2022/11/11 00:54:06;;;;;;;;;;;;;;;;;;1043504;28;1858;-56
2022/11/11 00:54:36;;;;;;;;;;;;;;;;;;1044128;28;2533;-60
2022/11/11 00:55:06;;;;;;;;;;;;;;;;;;1044561;28;2533;-58
2022/11/11 00:55:37;;;;;;;;;;;;;;;;;;1046139;28;1643;-57
2022/11/11 00:56:07;;;;;;;;;;;;;;;;;;1045569;28;1674;-59
2022/11/11 00:56:38;;;;;;;;;;;;;;;;;;1046439;28;2291;-59
2022/11/11 00:57:08;;;;;;;;;;;;;;;;;;1045569;28;2460;-56
2022/11/11 00:57:52;;;;;;;;;;;;;;;;;;1044651;28;2525;-56
2022/11/11 00:58:30;;;;;;;;;;;;;;;;;;1044520;28;2682;-58
2022/11/11 00:59:01;;;;;;;;;;;;;;;;;;1043748;28;3125;-55
2022/11/11 00:59:31;;;;;;;;;;;;;;;;;;1044146;28;2420;-55
2022/11/11 01:00:02;;;;;;;;;;;;;;;;;;1045403;28;2859;-57
2022/11/11 01:00:32;;;;;;;;;;;;;;;;;;1044954;28;2189;-55
2022/11/11 01:01:02;;;;;;;;;;;;;;;;;;1046201;28;2280;-53
2022/11/11 01:01:33;;;;;;;;;;;;;;;;;;1045650;28;1863;-56
2022/11/11 01:02:03;;;;;;;;;;;;;;;;;;1047707;28;1678;-53
2022/11/11 01:02:34;;;;;;;;;;;;;;;;;;1043845;28;2518;-58
2022/11/11 01:03:04;;;;;;;;;;;;;;;;;;1044527;28;2502;-56
2022/11/11 01:03:34;;;;;;;;;;;;;;;;;;1045106;28;2319;-56
2022/11/11 01:04:04;;;;;;;;;;;;;;;;;;1044047;28;3036;-58
2022/11/11 01:04:35;;;;;;;;;;;;;;;;;;1042660;28;3360;-55
2022/11/11 01:05:05;;;;;;;;;;;;;;;;;;1044907;28;2435;-56
2022/11/11 01:05:36;;;;;;;;;;;;;;;;;;1044919;28;2937;-57
2022/11/11 01:06:07;;;;;;;;;;;;;;;;;;1046949;28;2758;-52
2022/11/11 01:06:37;;;;;;;;;;;;;;;;;;1044457;28;3303;-55
2022/11/11 01:07:07;;;;;;;;;;;;;;;;;;1045493;28;2490;-58
2022/11/11 01:07:37;;;;;;;;;;;;;;;;;;1044446;28;2816;-54
2022/11/11 01:08:07;;;;;;;;;;;;;;;;;;1045539;28;2382;-57
2022/11/11 01:08:38;;;;;;;;;;;;;;;;;;1044647;28;3027;-60
2022/11/11 01:09:08;;;;;;;;;;;;;;;;;;1045113;28;2502;-55
2022/11/11 01:09:38;;;;;;;;;;;;;;;;;;1046259;28;2234;-57
2022/11/11 01:10:09;;;;;;;;;;;;;;;;;;1039392;28;1904;-56
2022/11/11 01:10:42;;;;;;;;;;;;;;;;;;1040634;28;2437;-58
2022/11/11 01:11:16;;;;;;;;;;;;;;;;;;1035979;28;2625;-57
2022/11/11 01:11:46;;;;;;;;;;;;;;;;;;1038808;28;2540;-57
2022/11/11 01:12:16;;;;;;;;;;;;;;;;;;1042636;28;2581;-56
2022/11/11 01:12:47;;;;;;;;;;;;;;;;;;1044416;28;2564;-59
2022/11/11 01:13:17;;;;;;;;;;;;;;;;;;1044340;28;2618;-57
2022/11/11 01:13:47;;;;;;;;;;;;;;;;;;1043395;28;2714;-56
2022/11/11 01:14:17;;;;;;;;;;;;;;;;;;1044288;28;2763;-58
2022/11/11 01:14:48;;;;;;;;;;;;;;;;;;1043821;28;1920;-55
2022/11/11 01:15:18;;;;;;;;;;;;;;;;;;1043430;28;2553;-56
2022/11/11 01:15:50;;;;;;;;;;;;;;;;;;1043602;28;2587;-58
2022/11/11 01:16:21;;;;;;;;;;;;;;;;;;1044408;28;2370;-58
2022/11/11 01:16:52;;;;;;;;;;;;;;;;;;1044404;28;2237;-57
2022/11/11 01:17:22;;;;;;;;;;;;;;;;;;1042912;28;2944;-56
2022/11/11 01:17:52;;;;;;;;;;;;;;;;;;1042845;28;2107;-59
2022/11/11 01:18:23;;;;;;;;;;;;;;;;;;1045893;28;2292;-53
2022/11/11 01:18:53;;;;;;;;;;;;;;;;;;1042798;28;2466;-55
2022/11/11 01:19:24;;;;;;;;;;;;;;;;;;1045829;28;2064;-55
2022/11/11 01:19:54;;;;;;;;;;;;;;;;;;1045493;28;2979;-55
2022/11/11 01:20:24;;;;;;;;;;;;;;;;;;1044610;28;2986;-55
2022/11/11 01:20:58;;;;;;;;;;;;;;;;;;1044366;28;2519;-56
2022/11/11 01:21:28;;;;;;;;;;;;;;;;;;1045979;28;2209;-53
2022/11/11 01:21:58;;;;;;;;;;;;;;;;;;1046211;28;2470;-55
2022/11/11 01:22:28;;;;;;;;;;;;;;;;;;1042408;28;1995;-52
2022/11/11 01:22:59;;;;;;;;;;;;;;;;;;1045571;28;2461;-52
2022/11/11 01:23:30;;;;;;;;;;;;;;;;;;1042490;28;2025;-56
2022/11/11 01:24:00;;;;;;;;;;;;;;;;;;1045377;28;2945;-56
2022/11/11 01:24:37;;;;;;;;;;;;;;;;;;1044367;28;2446;-58
2022/11/11 01:25:07;;;;;;;;;;;;;;;;;;1045433;28;1958;-55
2022/11/11 01:25:39;;;;;;;;;;;;;;;;;;1042316;28;1982;-56
2022/11/11 01:26:16;;;;;;;;;;;;;;;;;;1044379;28;2307;-55
2022/11/11 01:26:46;;;;;;;;;;;;;;;;;;1044001;28;2546;-58
2022/11/11 01:27:16;;;;;;;;;;;;;;;;;;1044851;28;2315;-57
2022/11/11 01:27:47;;;;;;;;;;;;;;;;;;1044473;28;2440;-55
2022/11/11 01:28:17;;;;;;;;;;;;;;;;;;1044493;28;1711;-58
2022/11/11 01:28:48;;;;;;;;;;;;;;;;;;1045199;28;2203;-54
2022/11/11 01:29:18;;;;;;;;;;;;;;;;;;1044270;28;1778;-57
2022/11/11 01:29:49;;;;;;;;;;;;;;;;;;1041855;28;2493;-50
2022/11/11 01:30:19;;;;;;;;;;;;;;;;;;1043627;28;2613;-57
2022/11/11 01:30:49;;;;;;;;;;;;;;;;;;1043469;28;1840;-56
2022/11/11 01:31:20;;;;;;;;;;;;;;;;;;1045377;28;2412;-51
2022/11/11 01:31:50;;;;;;;;;;;;;;;;;;1044332;28;2001;-56
2022/11/11 01:32:21;;;;;;;;;;;;;;;;;;1047130;28;1641;-56
2022/11/11 01:32:51;;;;;;;;;;;;;;;;;;1045260;28;2027;-57
2022/11/11 01:33:21;;;;;;;;;;;;;;;;;;1046631;28;1706;-59
2022/11/11 01:33:52;;;;;;;;;;;;;;;;;;1043806;28;2115;-56
2022/11/11 01:34:22;;;;;;;;;;;;;;;;;;1042787;28;2023;-56
2022/11/11 01:34:52;;;;;;;;;;;;;;;;;;1045991;28;1971;-59
2022/11/11 01:35:23;;;;;;;;;;;;;;;;;;1043304;28;2142;-56
2022/11/11 01:35:53;;;;;;;;;;;;;;;;;;1043087;28;2067;-55
2022/11/11 01:36:25;;;;;;;;;;;;;;;;;;1043639;28;2119;-52
2022/11/11 01:36:55;;;;;;;;;;;;;;;;;;1043963;28;2073;-54
2022/11/11 01:37:25;;;;;;;;;;;;;;;;;;1044042;28;2259;-57
2022/11/11 01:37:56;;;;;;;;;;;;;;;;;;1041655;28;2838;-55
2022/11/11 01:38:27;;;;;;;;;;;;;;;;;;1045867;28;1876;-56
2022/11/11 01:38:58;;;;;;;;;;;;;;;;;;1044014;28;1890;-54
2022/11/11 01:39:28;;;;;;;;;;;;;;;;;;1045472;28;1920;-55
2022/11/11 01:39:58;;;;;;;;;;;;;;;;;;1044894;28;2041;-57
2022/11/11 01:40:29;;;;;;;;;;;;;;;;;;1045190;28;2041;-56
2022/11/11 01:40:59;;;;;;;;;;;;;;;;;;1045458;28;2348;-58
2022/11/11 01:41:35;;;;;;;;;;;;;;;;;;1043171;28;2212;-54
2022/11/11 01:42:05;;;;;;;;;;;;;;;;;;1043970;28;2531;-56
2022/11/11 01:42:48;;;;;;;;;;;;;;;;;;1044798;28;1723;-59
2022/11/11 01:43:21;;;;;;;;;;;;;;;;;;1045965;28;2689;-54
2022/11/11 01:43:51;;;;;;;;;;;;;;;;;;1044747;28;1880;-56
2022/11/11 01:44:41;;;;;;;;;;;;;;;;;;1046042;28;1594;-58
2022/11/11 01:45:30;;;;;;;;;;;;;;;;;;1042815;28;2271;-56
2022/11/11 01:46:02;;;;;;;;;;;;;;;;;;1044684;28;2478;-59
2022/11/11 01:46:38;;;;;;;;;;;;;;;;;;1044331;28;2821;-56
2022/11/11 01:47:09;;;;;;;;;;;;;;;;;;1043811;28;2929;-53
2022/11/11 01:49:17;;;;;;;;;;;;;;;;;;1044192;28;1702;-57
2022/11/11 01:49:45;;;;;;;;;;;;;;;;;;1042110;28;1844;-55
2022/11/11 01:50:16;;;;;;;;;;;;;;;;;;1045085;28;2403;-58
2022/11/11 01:50:46;;;;;;;;;;;;;;;;;;1043967;28;2901;-57
2022/11/11 01:51:25;;;;;;;;;;;;;;;;;;1041703;28;2589;-59
2022/11/11 01:52:01;;;;;;;;;;;;;;;;;;1044563;28;1695;-52
2022/11/11 01:52:34;;;;;;;;;;;;;;;;;;1041653;28;2028;-55
2022/11/11 01:53:04;;;;;;;;;;;;;;;;;;1043013;28;2699;-58
2022/11/11 01:53:35;;;;;;;;;;;;;;;;;;1043475;28;1894;-54
2022/11/11 01:54:07;;;;;;;;;;;;;;;;;;1046178;28;1972;-56
2022/11/11 01:54:40;;;;;;;;;;;;;;;;;;1044992;28;2125;-55
2022/11/11 01:55:16;;;;;;;;;;;;;;;;;;1043306;28;1721;-57
2022/11/11 01:55:46;;;;;;;;;;;;;;;;;;1045413;28;1680;-55
2022/11/11 01:56:16;;;;;;;;;;;;;;;;;;1046183;28;2184;-56
2022/11/11 01:56:49;;;;;;;;;;;;;;;;;;1045373;28;1848;-58
2022/11/11 01:57:31;;;;;;;;;;;;;;;;;;1045305;28;2247;-54
2022/11/11 01:58:10;;;;;;;;;;;;;;;;;;1038081;28;1692;-57
2022/11/11 01:58:40;;;;;;;;;;;;;;;;;;1036785;28;2222;-55
2022/11/11 01:59:11;;;;;;;;;;;;;;;;;;1035880;28;2016;-53
2022/11/11 01:59:43;;;;;;;;;;;;;;;;;;1035921;28;2463;-56
2022/11/11 02:00:15;;;;;;;;;;;;;;;;;;1035557;28;2604;-58
2022/11/11 02:00:45;;;;;;;;;;;;;;;;;;1036825;28;2020;-58
2022/11/11 02:01:23;;;;;;;;;;;;;;;;;;1036132;28;1863;-55
2022/11/11 02:01:53;;;;;;;;;;;;;;;;;;1037384;28;2023;-57
2022/11/11 02:02:26;;;;;;;;;;;;;;;;;;1036919;28;2412;-56
2022/11/11 02:02:58;;;;;;;;;;;;;;;;;;1035498;28;2061;-57
2022/11/11 02:03:30;;;;;;;;;;;;;;;;;;1037333;28;1858;-58
2022/11/11 02:05:43;;;;;;;;;;;;;;;;;;1035504;28;2949;-53
2022/11/11 02:06:13;;;;;;;;;;;;;;;;;;1038182;28;2036;-58
2022/11/11 02:06:43;;;;;;;;;;;;;;;;;;1037060;28;2072;-57
2022/11/11 02:07:14;;;;;;;;;;;;;;;;;;1036015;28;2389;-56
2022/11/11 02:07:44;;;;;;;;;;;;;;;;;;1035594;28;2431;-60
2022/11/11 02:08:31;;;;;;;;;;;;;;;;;;1037816;28;1722;-56
2022/11/11 02:09:02;;;;;;;;;;;;;;;;;;1037424;28;2020;-59
2022/11/11 02:09:33;;;;;;;;;;;;;;;;;;1036962;28;2384;-60
2022/11/11 02:10:06;;;;;;;;;;;;;;;;;;1037598;28;1801;-57
2022/11/11 02:10:37;;;;;;;;;;;;;;;;;;1035557;28;2395;-58
2022/11/11 02:11:12;;;;;;;;;;;;;;;;;;1037437;28;2574;-57
2022/11/11 02:14:59;;;;;;;;;;;;;;;;;;1033871;28;2582;-54
2022/11/11 02:15:29;;;;;;;;;;;;;;;;;;1037605;28;2188;-58
2022/11/11 02:16:00;;;;;;;;;;;;;;;;;;1036873;28;1953;-57
2022/11/11 02:16:30;;;;;;;;;;;;;;;;;;1036679;28;2437;-55
2022/11/11 02:17:06;;;;;;;;;;;;;;;;;;1036349;28;2438;-56
2022/11/11 02:17:37;;;;;;;;;;;;;;;;;;1036849;28;2154;-59
2022/11/11 02:18:07;;;;;;;;;;;;;;;;;;1036861;28;2437;-59
2022/11/11 02:18:38;;;;;;;;;;;;;;;;;;1036715;28;2688;-59
2022/11/11 02:19:08;;;;;;;;;;;;;;;;;;1036262;28;2201;-57
2022/11/11 02:19:42;;;;;;;;;;;;;;;;;;1036617;28;2048;-55
2022/11/11 02:20:15;;;;;;;;;;;;;;;;;;1036957;28;2959;-59
2022/11/11 02:20:45;;;;;;;;;;;;;;;;;;1035470;28;2951;-55
2022/11/11 02:21:21;;;;;;;;;;;;;;;;;;1038072;28;1656;-59
2022/11/11 02:21:58;;;;;;;;;;;;;;;;;;1037072;28;1909;-58
2022/11/11 02:22:35;;;;;;;;;;;;;;;;;;1037174;28;1630;-56
2022/11/11 02:23:08;;;;;;;;;;;;;;;;;;1035340;28;2204;-57
2022/11/11 02:23:42;;;;;;;;;;;;;;;;;;1036717;28;2307;-56
2022/11/11 02:24:15;;;;;;;;;;;;;;;;;;1037341;28;1984;-54
2022/11/11 02:24:45;;;;;;;;;;;;;;;;;;1035771;28;2424;-52
2022/11/11 02:25:17;;;;;;;;;;;;;;;;;;1036039;28;2793;-56
2022/11/11 02:25:48;;;;;;;;;;;;;;;;;;1037257;28;2722;-52
2022/11/11 02:26:19;;;;;;;;;;;;;;;;;;1037550;28;1991;-58
2022/11/11 02:26:50;;;;;;;;;;;;;;;;;;1036310;28;2516;-57
2022/11/11 02:27:22;;;;;;;;;;;;;;;;;;1036080;28;2688;-55
2022/11/11 02:27:55;;;;;;;;;;;;;;;;;;1038183;28;1798;-58
2022/11/11 02:28:26;;;;;;;;;;;;;;;;;;1036079;28;2969;-58
2022/11/11 02:28:56;;;;;;;;;;;;;;;;;;1037679;28;1968;-58
2022/11/11 02:29:27;;;;;;;;;;;;;;;;;;1036259;28;2809;-57
2022/11/11 02:29:59;;;;;;;;;;;;;;;;;;1037082;28;2461;-57
2022/11/11 02:30:29;;;;;;;;;;;;;;;;;;1036664;28;2539;-57
2022/11/11 02:30:59;;;;;;;;;;;;;;;;;;1037853;28;1679;-61
2022/11/11 02:31:30;;;;;;;;;;;;;;;;;;1036966;28;2176;-52
2022/11/11 02:32:01;;;;;;;;;;;;;;;;;;1036077;28;2448;-59
2022/11/11 02:32:31;;;;;;;;;;;;;;;;;;1036678;28;2112;-59
2022/11/11 02:33:01;;;;;;;;;;;;;;;;;;1034548;28;2442;-56
2022/11/11 02:33:31;;;;;;;;;;;;;;;;;;1037588;28;1867;-56
2022/11/11 02:34:01;;;;;;;;;;;;;;;;;;1036731;28;2690;-57
2022/11/11 02:34:32;;;;;;;;;;;;;;;;;;1035862;28;3274;-57
2022/11/11 02:35:08;;;;;;;;;;;;;;;;;;1035322;28;1969;-58
2022/11/11 02:35:43;;;;;;;;;;;;;;;;;;1036308;28;2342;-58
2022/11/11 02:36:14;;;;;;;;;;;;;;;;;;1036472;28;2621;-56
2022/11/11 02:36:44;;;;;;;;;;;;;;;;;;1036774;28;2110;-53
2022/11/11 02:37:17;;;;;;;;;;;;;;;;;;1037768;28;2052;-56
2022/11/11 02:37:49;;;;;;;;;;;;;;;;;;1037895;28;2667;-58
2022/11/11 02:38:19;;;;;;;;;;;;;;;;;;1036610;28;1700;-58
2022/11/11 02:38:50;;;;;;;;;;;;;;;;;;1037119;28;1986;-56
2022/11/11 02:39:20;;;;;;;;;;;;;;;;;;1037627;28;1894;-56
2022/11/11 02:39:52;;;;;;;;;;;;;;;;;;1037888;28;1959;-57
2022/11/11 02:41:56;;;;;;;;;;;;;;;;;;1036933;28;1917;-59
2022/11/11 02:42:26;;;;;;;;;;;;;;;;;;1036789;28;1827;-57
2022/11/11 02:42:56;;;;;;;;;;;;;;;;;;1037444;28;2936;-57
2022/11/11 02:43:26;;;;;;;;;;;;;;;;;;1037362;28;1822;-55
2022/11/11 02:43:57;;;;;;;;;;;;;;;;;;1037661;28;2723;-60
2022/11/11 02:44:27;;;;;;;;;;;;;;;;;;1036437;28;2672;-57
2022/11/11 02:44:58;;;;;;;;;;;;;;;;;;1036451;28;2543;-56
2022/11/11 02:45:28;;;;;;;;;;;;;;;;;;1033734;28;2462;-59
2022/11/11 02:45:59;;;;;;;;;;;;;;;;;;1036923;28;1645;-60
2022/11/11 02:46:29;;;;;;;;;;;;;;;;;;1036499;28;3161;-57
2022/11/11 02:46:59;;;;;;;;;;;;;;;;;;1036432;28;2376;-58
2022/11/11 02:47:30;;;;;;;;;;;;;;;;;;1036547;28;1830;-54
2022/11/11 02:48:00;;;;;;;;;;;;;;;;;;1037694;28;2086;-57
2022/11/11 02:48:30;;;;;;;;;;;;;;;;;;1031698;28;2188;-58
2022/11/11 02:49:00;;;;;;;;;;;;;;;;;;1032206;28;2560;-59
2022/11/11 02:49:31;;;;;;;;;;;;;;;;;;1032281;28;2163;-55
2022/11/11 02:50:01;;;;;;;;;;;;;;;;;;1032556;28;2050;-55
2022/11/11 02:50:32;;;;;;;;;;;;;;;;;;1036310;28;2455;-56
2022/11/11 02:51:02;;;;;;;;;;;;;;;;;;1035241;28;2328;-56
2022/11/11 02:51:32;;;;;;;;;;;;;;;;;;1038021;28;2032;-58
2022/11/11 02:52:02;;;;;;;;;;;;;;;;;;1036459;28;2133;-57
2022/11/11 02:52:33;;;;;;;;;;;;;;;;;;1038953;28;1736;-58
2022/11/11 02:53:03;;;;;;;;;;;;;;;;;;1037656;28;2089;-57
2022/11/11 02:53:33;;;;;;;;;;;;;;;;;;1036292;28;2402;-58
2022/11/11 02:54:03;;;;;;;;;;;;;;;;;;1035872;28;2083;-59
2022/11/11 02:54:34;;;;;;;;;;;;;;;;;;1038674;28;1819;-54
2022/11/11 02:55:04;;;;;;;;;;;;;;;;;;1036220;28;2217;-57
2022/11/11 02:55:35;;;;;;;;;;;;;;;;;;1037726;28;1742;-58
2022/11/11 02:56:05;;;;;;;;;;;;;;;;;;1038036;28;1817;-57
2022/11/11 02:57:24;;;;;;;;;;;;;;;;;;1036449;28;2159;-57
2022/11/11 02:58:01;;;;;;;;;;;;;;;;;;1042093;28;2541;-59
2022/11/11 02:58:38;;;;;;;;;;;;;;;;;;1045086;28;1980;-55
2022/11/11 02:59:15;;;;;;;;;;;;;;;;;;1043256;28;1603;-56
2022/11/11 02:59:45;;;;;;;;;;;;;;;;;;1041512;28;1919;-55
2022/11/11 03:00:16;;;;;;;;;;;;;;;;;;1041970;28;2003;-55
2022/11/11 03:00:46;;;;;;;;;;;;;;;;;;1043181;28;2409;-57
2022/11/11 03:01:23;;;;;;;;;;;;;;;;;;1044818;28;2944;-58
2022/11/11 03:01:53;;;;;;;;;;;;;;;;;;1043893;28;1940;-59
2022/11/11 03:02:26;;;;;;;;;;;;;;;;;;1043336;28;1860;-56
2022/11/11 03:02:56;;;;;;;;;;;;;;;;;;1044247;28;2402;-55
2022/11/11 03:03:26;;;;;;;;;;;;;;;;;;1046414;28;1620;-52
2022/11/11 03:03:56;;;;;;;;;;;;;;;;;;1044897;28;1896;-58
2022/11/11 03:04:27;;;;;;;;;;;;;;;;;;1042831;28;2040;-59
2022/11/11 03:04:57;;;;;;;;;;;;;;;;;;1045135;28;2115;-58
2022/11/11 03:05:27;;;;;;;;;;;;;;;;;;1043867;28;1727;-53
2022/11/11 03:05:57;;;;;;;;;;;;;;;;;;1041741;28;2060;-58
2022/11/11 03:06:28;;;;;;;;;;;;;;;;;;1045639;28;2080;-54
2022/11/11 03:06:58;;;;;;;;;;;;;;;;;;1041659;28;1915;-52
2022/11/11 03:07:28;;;;;;;;;;;;;;;;;;1045091;28;2312;-58
2022/11/11 03:07:58;;;;;;;;;;;;;;;;;;1045498;28;2981;-54
2022/11/11 03:08:29;;;;;;;;;;;;;;;;;;1043850;28;2195;-57
2022/11/11 03:08:59;;;;;;;;;;;;;;;;;;1045018;28;3047;-57
2022/11/11 03:09:29;;;;;;;;;;;;;;;;;;1046774;28;2005;-55
2022/11/11 03:09:59;;;;;;;;;;;;;;;;;;1047006;28;2959;-55
2022/11/11 03:10:30;;;;;;;;;;;;;;;;;;1044852;28;2324;-56
2022/11/11 03:11:00;;;;;;;;;;;;;;;;;;1046351;28;2695;-58
2022/11/11 03:11:30;;;;;;;;;;;;;;;;;;1045581;28;1819;-56
2022/11/11 03:12:00;;;;;;;;;;;;;;;;;;1044458;28;1854;-60
2022/11/11 03:12:31;;;;;;;;;;;;;;;;;;1046374;28;2315;-56
2022/11/11 03:13:01;;;;;;;;;;;;;;;;;;1044101;28;1894;-57
2022/11/11 03:13:31;;;;;;;;;;;;;;;;;;1044036;28;2084;-56
2022/11/11 03:14:01;;;;;;;;;;;;;;;;;;1044882;28;2129;-55
2022/11/11 03:14:32;;;;;;;;;;;;;;;;;;1044203;28;3133;-58
2022/11/11 03:15:02;;;;;;;;;;;;;;;;;;1043318;28;2523;-57
2022/11/11 03:15:33;;;;;;;;;;;;;;;;;;1046404;28;2101;-58
2022/11/11 03:16:03;;;;;;;;;;;;;;;;;;1045083;28;2490;-56
2022/11/11 03:17:40;;;;;;;;;;;;;;;;;;1046676;28;2095;-60
2022/11/11 03:18:10;;;;;;;;;;;;;;;;;;1043836;28;2458;-56
2022/11/11 03:18:41;;;;;;;;;;;;;;;;;;1046247;28;2368;-56
2022/11/11 03:19:11;;;;;;;;;;;;;;;;;;1047493;28;1821;-59
2022/11/11 03:19:41;;;;;;;;;;;;;;;;;;1046712;28;1990;-55
2022/11/11 03:21:11;;;;;;;;;;;;;;;;;;1043466;28;1759;-57
2022/11/11 03:21:41;;;;;;;;;;;;;;;;;;1044356;28;1812;-56
2022/11/11 03:22:12;;;;;;;;;;;;;;;;;;1044337;28;2128;-56
2022/11/11 03:22:42;;;;;;;;;;;;;;;;;;1045942;28;1819;-57
2022/11/11 03:23:13;;;;;;;;;;;;;;;;;;1045857;28;2883;-54
2022/11/11 03:23:44;;;;;;;;;;;;;;;;;;1044249;28;2475;-57
2022/11/11 03:24:14;;;;;;;;;;;;;;;;;;1045761;28;1708;-59
2022/11/11 03:25:39;;;;;;;;;;;;;;;;;;1044488;28;2129;-57
2022/11/11 03:26:09;;;;;;;;;;;;;;;;;;1044548;28;2930;-56
2022/11/11 03:26:39;;;;;;;;;;;;;;;;;;1046046;28;2039;-53
2022/11/11 03:27:10;;;;;;;;;;;;;;;;;;1046149;28;2550;-58
2022/11/11 03:27:40;;;;;;;;;;;;;;;;;;1046660;28;2083;-54
2022/11/11 03:28:15;;;;;;;;;;;;;;;;;;1045746;28;2447;-53
2022/11/11 03:28:45;;;;;;;;;;;;;;;;;;1043270;28;2519;-58
2022/11/11 03:29:16;;;;;;;;;;;;;;;;;;1044377;28;2083;-56
2022/11/11 03:29:46;;;;;;;;;;;;;;;;;;1044775;28;2072;-56
2022/11/11 03:30:16;;;;;;;;;;;;;;;;;;1045850;28;1792;-55
2022/11/11 03:30:47;;;;;;;;;;;;;;;;;;1046103;28;2622;-56
2022/11/11 03:31:18;;;;;;;;;;;;;;;;;;1042976;28;1675;-52
2022/11/11 03:31:48;;;;;;;;;;;;;;;;;;1042943;28;2272;-52
2022/11/11 03:32:18;;;;;;;;;;;;;;;;;;1045414;28;1909;-54
2022/11/11 03:32:48;;;;;;;;;;;;;;;;;;1042648;28;1890;-55
2022/11/11 03:33:19;;;;;;;;;;;;;;;;;;1046419;28;2048;-52
2022/11/11 03:33:49;;;;;;;;;;;;;;;;;;1044872;28;1677;-56
2022/11/11 03:34:19;;;;;;;;;;;;;;;;;;1045601;28;1997;-53
2022/11/11 03:34:49;;;;;;;;;;;;;;;;;;1046220;28;2110;-59
2022/11/11 03:35:20;;;;;;;;;;;;;;;;;;1044180;28;2168;-56
2022/11/11 03:35:50;;;;;;;;;;;;;;;;;;1044573;28;1820;-54
2022/11/11 03:38:14;;;;;;;;;;;;;;;;;;1044743;28;2237;-59
2022/11/11 03:38:14;;;;;;;;;;;;;;;;;;1047111;28;1695;-58
2022/11/11 03:38:45;;;;;;;;;;;;;;;;;;1044167;28;2599;-56
2022/11/11 03:39:15;;;;;;;;;;;;;;;;;;1045502;28;1682;-54
2022/11/11 03:39:45;;;;;;;;;;;;;;;;;;1045506;28;2032;-54
2022/11/11 03:40:15;;;;;;;;;;;;;;;;;;1045832;28;2106;-57
2022/11/11 03:40:46;;;;;;;;;;;;;;;;;;1043581;28;2518;-55
2022/11/11 03:41:23;;;;;;;;;;;;;;;;;;1044040;28;1845;-54
2022/11/11 03:41:53;;;;;;;;;;;;;;;;;;1044578;28;1700;-61
2022/11/11 03:42:23;;;;;;;;;;;;;;;;;;1044962;28;1919;-55
2022/11/11 03:42:54;;;;;;;;;;;;;;;;;;1045996;28;2056;-57
2022/11/11 03:43:25;;;;;;;;;;;;;;;;;;1043883;28;1983;-57
2022/11/11 03:43:56;;;;;;;;;;;;;;;;;;1046128;28;2069;-53
2022/11/11 03:44:27;;;;;;;;;;;;;;;;;;1046446;28;1756;-61
2022/11/11 03:44:57;;;;;;;;;;;;;;;;;;1045537;28;2282;-53
2022/11/11 03:45:27;;;;;;;;;;;;;;;;;;1044164;28;1782;-58
2022/11/11 03:45:58;;;;;;;;;;;;;;;;;;1044124;28;2309;-57
2022/11/11 03:46:29;;;;;;;;;;;;;;;;;;1046075;28;1831;-60
2022/11/11 03:46:59;;;;;;;;;;;;;;;;;;1044799;28;2140;-58
2022/11/11 03:47:29;;;;;;;;;;;;;;;;;;1043351;28;2571;-59
2022/11/11 03:47:59;;;;;;;;;;;;;;;;;;1045523;28;2370;-58
2022/11/11 03:48:31;;;;;;;;;;;;;;;;;;1045919;28;2380;-58
2022/11/11 03:49:01;;;;;;;;;;;;;;;;;;1044843;28;2181;-58
2022/11/11 03:49:32;;;;;;;;;;;;;;;;;;1044097;28;2037;-59
2022/11/11 03:50:02;;;;;;;;;;;;;;;;;;1045143;28;1958;-54
2022/11/11 03:50:32;;;;;;;;;;;;;;;;;;1044200;28;1784;-54
2022/11/11 03:51:03;;;;;;;;;;;;;;;;;;1045843;28;2017;-57
2022/11/11 03:51:33;;;;;;;;;;;;;;;;;;1042687;28;2500;-58
2022/11/11 03:52:03;;;;;;;;;;;;;;;;;;1040751;28;2718;-57
2022/11/11 03:52:33;;;;;;;;;;;;;;;;;;1040571;28;2855;-58
2022/11/11 03:53:04;;;;;;;;;;;;;;;;;;1045760;28;1605;-57
2022/11/11 03:53:34;;;;;;;;;;;;;;;;;;1044085;28;2149;-59
2022/11/11 03:54:04;;;;;;;;;;;;;;;;;;1044055;28;2363;-56
2022/11/11 03:54:35;;;;;;;;;;;;;;;;;;1044458;28;2204;-59
2022/11/11 03:55:05;;;;;;;;;;;;;;;;;;1045123;28;2245;-56
2022/11/11 03:55:35;;;;;;;;;;;;;;;;;;1043592;28;2191;-57
2022/11/11 03:56:06;;;;;;;;;;;;;;;;;;1039924;28;2244;-57
2022/11/11 03:56:36;;;;;;;;;;;;;;;;;;1044460;28;1571;-58
2022/11/11 03:58:02;;;;;;;;;;;;;;;;;;1041071;28;2568;-55
2022/11/11 03:58:39;;;;;;;;;;;;;;;;;;1043158;28;1715;-56
2022/11/11 03:59:16;;;;;;;;;;;;;;;;;;1044328;28;1660;-56
2022/11/11 03:59:46;;;;;;;;;;;;;;;;;;1044036;28;2166;-55
2022/11/11 04:00:19;;;;;;;;;;;;;;;;;;1045781;28;2106;-56
2022/11/11 04:00:49;;;;;;;;;;;;;;;;;;1045164;28;1784;-58
2022/11/11 04:10:25;;;;;;;;;;;;;;;;;;1044463;28;2012;-58
2022/11/11 04:10:56;;;;;;;;;;;;;;;;;;1043403;28;2027;-55
2022/11/11 04:11:30;;;;;;;;;;;;;;;;;;1044735;28;1707;-57
2022/11/11 04:12:00;;;;;;;;;;;;;;;;;;1044392;28;1829;-56
2022/11/11 04:16:04;;;;;;;;;;;;;;;;;;1043948;28;2062;-57
2022/11/11 04:16:08;;;;;;;;;;;;;;;;;;1044245;28;1868;-55
2022/11/11 04:16:38;;;;;;;;;;;;;;;;;;1045126;28;1740;-60
2022/11/11 04:17:08;;;;;;;;;;;;;;;;;;1046092;28;1913;-57
2022/11/11 04:17:38;;;;;;;;;;;;;;;;;;1044637;28;1615;-56
2022/11/11 04:18:08;;;;;;;;;;;;;;;;;;1046739;28;1969;-60